Time;durP1;ratioP1;P1;durP2;ratioP2;P2;SDS_P1;SDS_P2;PMS_P1;PMS_P2;Temp;Humidity;BMP_temperature;BMP_pressure;BME280_temperature;BME280_humidity;BME280_pressure;Samples;Min_cycle;Max_cycle;Signal;HPM_P1;HPM_P2
2022/12/26 00:01:26;;;;;;;32.75;27.15;;;12.00;93.20;;;;;;5093990;28;20032;-78
2022/12/26 00:03:52;;;;;;;34.78;26.92;;;12.00;93.30;;;;;;5075880;28;20029;-78
2022/12/26 00:06:21;;;;;;;32.78;26.60;;;12.00;93.30;;;;;;5093744;28;20494;-78
2022/12/26 00:08:47;;;;;;;32.08;25.85;;;11.90;93.40;;;;;;5094086;28;20044;-78
2022/12/26 00:11:13;;;;;;;37.83;28.20;;;11.90;93.30;;;;;;5094115;28;20058;-78
2022/12/26 00:13:40;;;;;;;32.75;27.00;;;11.90;93.40;;;;;;5093480;28;20387;-78
2022/12/26 00:16:14;;;;;;;34.53;26.55;;;11.90;93.50;;;;;;5075374;28;20138;-78
2022/12/26 00:18:40;;;;;;;;;;;11.90;93.60;;;;;;5076057;28;20081;-78
2022/12/26 00:21:06;;;;;;;34.50;25.20;;;11.90;93.70;;;;;;5093730;28;19904;-78
2022/12/26 00:23:33;;;;;;;30.50;24.83;;;11.90;93.70;;;;;;5075673;28;20038;-78
2022/12/26 00:26:04;;;;;;;32.55;25.75;;;12.00;93.70;;;;;;5093494;28;20039;-78
2022/12/26 00:28:30;;;;;;;33.03;26.90;;;12.00;93.60;;;;;;5075427;28;20100;-78
2022/12/26 00:30:55;;;;;;;32.35;25.33;;;12.00;93.50;;;;;;5075206;28;20043;-78
2022/12/26 00:33:21;;;;;;;34.05;25.90;;;12.00;93.50;;;;;;5075446;28;20041;-77
2022/12/26 00:35:47;;;;;;;35.10;26.15;;;12.00;93.60;;;;;;5093422;28;20020;-79
2022/12/26 00:38:13;;;;;;;32.35;24.75;;;12.00;93.50;;;;;;5075116;28;20036;-78
2022/12/26 00:40:43;;;;;;;28.23;23.50;;;12.00;93.70;;;;;;5093366;28;20383;-77
2022/12/26 00:43:09;;;;;;;30.15;24.95;;;12.00;93.40;;;;;;5093440;28;20050;-77
2022/12/26 00:45:35;;;;;;;29.50;23.98;;;12.00;93.70;;;;;;5093084;28;20028;-77
2022/12/26 00:48:01;;;;;;;35.60;25.42;;;12.00;93.60;;;;;;5074853;28;20101;-76
2022/12/26 00:50:27;;;;;;;32.78;23.88;;;12.10;93.70;;;;;;5093004;28;20336;-78
2022/12/26 00:52:54;;;;;;;30.23;24.15;;;12.10;93.50;;;;;;5093284;28;20032;-77
2022/12/26 00:55:19;;;;;;;31.88;23.40;;;12.10;93.50;;;;;;5093121;28;20434;-77
2022/12/26 00:57:45;;;;;;;29.67;23.35;;;12.10;93.40;;;;;;5075015;28;20028;-79
2022/12/26 01:00:11;;;;;;;31.23;23.77;;;12.10;93.40;;;;;;5075176;28;20039;-78
2022/12/26 01:02:37;;;;;;;28.08;23.05;;;12.00;93.30;;;;;;5093096;28;20043;-78
2022/12/26 01:05:04;;;;;;;31.30;22.52;;;11.90;93.40;;;;;;5074857;28;20437;-79
2022/12/26 01:07:35;;;;;;;28.88;22.08;;;11.90;93.40;;;;;;5074719;28;20032;-79
2022/12/26 01:10:06;;;;;;;26.58;22.13;;;11.80;93.60;;;;;;5074769;28;20032;-76
2022/12/26 01:12:32;;;;;;;27.60;22.15;;;11.80;93.10;;;;;;5092498;28;20434;-77
2022/12/26 01:14:58;;;;;;;30.08;22.60;;;11.70;93.60;;;;;;5074680;28;20036;-77
2022/12/26 01:17:26;;;;;;;27.58;21.15;;;11.70;93.70;;;;;;5074576;28;20060;-78
2022/12/26 01:19:52;;;;;;;25.48;21.20;;;11.70;93.80;;;;;;5074268;28;20553;-77
2022/12/26 01:22:17;;;;;;;27.65;21.83;;;11.80;93.90;;;;;;5074371;28;20032;-77
2022/12/26 01:24:43;;;;;;;24.42;20.58;;;11.80;93.60;;;;;;5074378;28;20082;-77
2022/12/26 01:27:09;;;;;;;28.48;21.15;;;11.80;93.50;;;;;;5092294;28;20048;-78
2022/12/26 01:29:35;;;;;;;27.90;21.60;;;11.80;93.60;;;;;;5074097;28;20058;-77
2022/12/26 01:32:00;;;;;;;27.67;21.90;;;11.80;93.60;;;;;;5092789;28;20032;-78
2022/12/26 01:34:26;;;;;;;29.20;21.25;;;11.80;93.60;;;;;;5074363;28;20456;-77
2022/12/26 01:36:52;;;;;;;27.33;21.27;;;11.80;93.60;;;;;;5074454;28;20035;-77
2022/12/26 01:39:18;;;;;;;28.80;20.33;;;11.70;93.70;;;;;;5092250;28;20499;-77
2022/12/26 01:41:44;;;;;;;28.58;21.02;;;11.80;93.80;;;;;;5074382;28;20039;-77
2022/12/26 01:44:47;;;;;;;24.95;20.23;;;11.80;93.70;;;;;;5092591;28;20495;-77
2022/12/26 01:47:13;;;;;;;24.63;19.63;;;11.80;93.30;;;;;;5093251;28;20035;-76
2022/12/26 01:49:45;;;;;;;23.20;19.83;;;11.80;93.80;;;;;;5096240;28;20036;-77
2022/12/26 01:52:42;;;;;;;24.75;19.75;;;11.80;93.80;;;;;;5077419;28;20353;-78
2022/12/26 01:55:12;;;;;;;30.05;20.05;;;11.80;93.90;;;;;;5091204;28;20036;-78
2022/12/26 01:57:43;;;;;;;25.85;19.27;;;11.70;93.70;;;;;;5092755;28;20097;-77
2022/12/26 02:00:09;;;;;;;24.55;19.58;;;11.80;93.70;;;;;;5074891;28;20066;-78
2022/12/26 02:05:32;;;;;;;26.73;20.17;;;11.70;93.40;;;;;;5074340;28;20456;-78
2022/12/26 02:05:32;;;;;;;26.65;20.52;;;11.70;93.50;;;;;;5092080;28;20036;-77
2022/12/26 02:08:00;;;;;;;26.05;18.35;;;11.70;93.70;;;;;;5092411;28;20047;-78
2022/12/26 02:10:27;;;;;;;23.17;17.75;;;11.70;93.60;;;;;;5092253;28;20384;-77
2022/12/26 02:12:53;;;;;;;24.92;18.40;;;11.70;93.70;;;;;;5074290;28;20126;-78
2022/12/26 02:15:19;;;;;;;23.63;18.02;;;11.70;93.70;;;;;;5092233;28;20074;-77
2022/12/26 02:17:45;;;;;;;25.60;18.73;;;11.70;93.70;;;;;;5092362;28;20068;-78
2022/12/26 02:20:22;;;;;;;25.80;18.98;;;11.70;93.40;;;;;;5092168;28;20489;-77
2022/12/26 02:23:00;;;;;;;25.63;19.02;;;11.70;93.60;;;;;;5092033;28;20044;-77
2022/12/26 02:25:44;;;;;;;24.85;18.27;;;11.70;93.10;;;;;;5091957;28;20024;-77
2022/12/26 02:28:21;;;;;;;22.92;17.65;;;11.70;93.50;;;;;;5053626;28;20411;-78
2022/12/26 02:31:10;;;;;;;22.85;17.67;;;11.70;93.00;;;;;;5071849;28;20032;-77
2022/12/26 02:33:36;;;;;;;21.58;17.83;;;11.70;93.00;;;;;;5053752;28;20044;-77
2022/12/26 02:36:23;;;;;;;22.48;19.25;;;11.60;93.50;;;;;;5071847;28;20032;-77
2022/12/26 02:39:10;;;;;;;27.38;18.90;;;11.60;93.00;;;;;;5056800;28;20036;-77
2022/12/26 02:42:03;;;;;;;25.60;19.65;;;11.60;93.10;;;;;;5075325;28;20039;-77
2022/12/26 02:47:54;;;;;;;24.50;18.75;;;11.40;92.90;;;;;;5074996;28;20083;-77
2022/12/26 03:14:41;;;;;;;20.77;17.33;;;11.20;93.60;;;;;;5074669;28;20083;-77
2022/12/26 03:17:18;;;;;;;22.90;16.33;;;11.10;92.70;;;;;;5074793;28;20036;-76
2022/12/26 03:20:11;;;;;;;19.38;16.63;;;11.10;93.60;;;;;;5074771;28;20028;-77
2022/12/26 03:22:48;;;;;;;18.95;15.05;;;11.10;92.80;;;;;;5050971;28;20048;-78
2022/12/26 03:28:02;;;;;;;20.77;15.68;;;11.00;92.80;;;;;;5074695;28;20143;-77
2022/12/26 03:35:59;;;;;;;20.27;15.07;;;11.10;92.90;;;;;;5074547;28;20182;-77
2022/12/26 03:38:56;;;;;;;20.00;15.70;;;11.00;93.50;;;;;;5074363;28;20389;-77
2022/12/26 04:21:07;;;;;;;21.75;15.75;;;11.10;92.60;;;;;;5073918;28;20083;-78
2022/12/26 04:46:19;;;;;;;18.10;12.65;;;11.30;92.80;;;;;;5093675;28;20150;-76
2022/12/26 04:51:32;;;;;;;14.75;10.50;;;11.30;92.70;;;;;;5093772;28;20617;-77
2022/12/26 04:53:57;;;;;;;13.98;11.02;;;11.30;92.50;;;;;;5074889;28;20123;-77
2022/12/26 04:56:23;;;;;;;14.50;10.93;;;11.30;92.40;;;;;;5093051;28;20032;-78
2022/12/26 04:58:49;;;;;;;14.20;10.63;;;11.30;92.30;;;;;;5093608;28;20137;-76
2022/12/26 05:09:36;;;;;;;13.77;10.77;;;11.30;91.90;;;;;;5092644;28;20034;-77
2022/12/26 05:12:04;;;;;;;14.73;9.70;;;11.30;91.90;;;;;;5074593;28;20096;-79
2022/12/26 05:14:30;;;;;;;12.35;9.50;;;11.20;92.20;;;;;;5092650;28;20036;-78
2022/12/26 05:30:55;;;;;;;14.25;10.00;;;11.10;92.20;;;;;;5092974;28;20109;-77
2022/12/26 05:36:06;;;;;;;14.07;10.43;;;11.10;92.10;;;;;;5092451;28;20043;-76
2022/12/26 05:38:31;;;;;;;15.57;11.68;;;11.10;92.10;;;;;;5092632;28;20438;-78
2022/12/26 05:40:57;;;;;;;15.73;11.43;;;11.20;92.00;;;;;;5074414;28;20036;-78
2022/12/26 05:43:23;;;;;;;17.38;14.40;;;11.20;92.10;;;;;;5092520;28;20480;-77
2022/12/26 05:45:49;;;;;;;20.42;14.57;;;11.30;92.10;;;;;;5074502;28;20094;-77
2022/12/26 05:48:14;;;;;;;20.48;15.40;;;11.30;91.90;;;;;;5074187;28;20131;-77
2022/12/26 05:50:40;;;;;;;22.42;17.90;;;11.40;91.80;;;;;;5074513;28;20055;-77
2022/12/26 05:53:06;;;;;;;26.45;23.60;;;11.40;91.70;;;;;;5074698;28;20124;-78
2022/12/26 05:55:31;;;;;;;28.67;23.80;;;11.40;91.80;;;;;;5074392;28;20085;-77
2022/12/26 05:57:59;;;;;;;25.00;21.95;;;11.40;91.80;;;;;;5074448;28;20036;-77
2022/12/26 06:00:25;;;;;;;24.20;21.48;;;11.40;91.90;;;;;;5074350;28;20468;-77
2022/12/26 06:02:51;;;;;;;23.95;20.67;;;11.40;91.80;;;;;;5092312;28;20428;-77
2022/12/26 06:05:17;;;;;;;25.98;23.15;;;11.30;91.70;;;;;;5092622;28;20111;-78
2022/12/26 06:07:43;;;;;;;24.45;21.67;;;11.40;91.80;;;;;;5074143;28;20075;-77
2022/12/26 06:10:09;;;;;;;27.30;22.17;;;11.40;91.80;;;;;;5074340;28;20078;-77
2022/12/26 06:12:35;;;;;;;21.33;18.10;;;11.40;91.70;;;;;;5093775;28;20031;-77
2022/12/26 06:15:01;;;;;;;18.85;15.75;;;11.40;91.70;;;;;;5078505;28;20040;-76
2022/12/26 06:17:27;;;;;;;16.98;13.57;;;11.40;91.70;;;;;;5096501;28;20032;-77
2022/12/26 06:19:52;;;;;;;14.65;11.38;;;11.40;91.50;;;;;;5096361;28;20404;-77
2022/12/26 06:22:18;;;;;;;16.02;10.75;;;11.40;91.70;;;;;;5096205;28;20074;-78
2022/12/26 06:24:44;;;;;;;14.25;10.23;;;11.40;91.50;;;;;;5096212;28;20035;-77
2022/12/26 06:27:09;;;;;;;12.80;9.82;;;11.50;91.60;;;;;;5077593;28;20044;-78
2022/12/26 06:29:35;;;;;;;14.30;9.55;;;11.40;91.50;;;;;;5077569;28;20044;-78
2022/12/26 06:32:01;;;;;;;12.95;8.93;;;11.40;91.50;;;;;;5077679;28;20115;-77
2022/12/26 06:34:27;;;;;;;13.80;8.55;;;11.40;91.40;;;;;;5077591;28;20028;-76
2022/12/26 06:36:54;;;;;;;13.25;8.52;;;11.50;91.60;;;;;;5096013;28;20369;-77
2022/12/26 06:39:20;;;;;;;14.80;8.80;;;11.50;91.50;;;;;;5077587;28;20050;-78
2022/12/26 06:41:46;;;;;;;11.15;7.97;;;11.50;91.50;;;;;;5095778;28;20024;-78
2022/12/26 06:44:12;;;;;;;13.60;8.65;;;11.40;91.50;;;;;;5095415;28;20039;-76
2022/12/26 06:46:38;;;;;;;15.25;8.32;;;11.40;91.30;;;;;;5077454;28;20040;-77
2022/12/26 06:49:05;;;;;;;12.65;8.90;;;11.40;91.50;;;;;;5095827;28;20046;-77
2022/12/26 06:51:31;;;;;;;12.10;8.57;;;11.40;91.50;;;;;;5096032;28;20111;-78
2022/12/26 06:53:58;;;;;;;11.57;8.32;;;11.40;91.40;;;;;;5077458;28;20048;-77
2022/12/26 06:56:26;;;;;;;11.38;8.45;;;11.50;91.50;;;;;;5077310;28;20480;-77
2022/12/26 06:58:53;;;;;;;12.15;8.60;;;11.50;91.30;;;;;;5095845;28;20054;-76
2022/12/26 07:01:20;;;;;;;13.38;8.88;;;11.50;91.30;;;;;;5077376;28;20032;-77
2022/12/26 07:03:46;;;;;;;13.23;8.93;;;11.50;91.40;;;;;;5095664;28;20047;-78
2022/12/26 07:06:17;;;;;;;12.30;9.00;;;11.60;91.30;;;;;;5077038;28;20041;-78
2022/12/26 07:08:43;;;;;;;13.23;9.35;;;11.60;91.20;;;;;;5076993;28;20566;-73
2022/12/26 07:11:18;;;;;;;11.98;9.07;;;11.60;91.30;;;;;;5077023;28;20119;-78
2022/12/26 07:13:43;;;;;;;14.02;9.90;;;11.60;91.30;;;;;;5076775;28;20039;-78
2022/12/26 07:16:10;;;;;;;17.00;9.88;;;11.60;91.30;;;;;;5095174;28;20074;-78
2022/12/26 07:18:36;;;;;;;14.25;10.00;;;11.70;91.30;;;;;;5076820;28;20406;-79
2022/12/26 07:21:10;;;;;;;15.00;10.65;;;11.70;91.20;;;;;;5095087;28;20029;-78
2022/12/26 07:23:36;;;;;;;13.88;10.50;;;11.70;91.30;;;;;;5094542;28;20035;-78
2022/12/26 07:26:02;;;;;;;13.15;10.07;;;11.80;91.30;;;;;;5094784;28;20395;-79
2022/12/26 07:28:28;;;;;;;13.73;10.98;;;11.80;91.30;;;;;;5094755;28;20156;-76
2022/12/26 07:30:56;;;;;;;19.75;12.65;;;11.90;91.40;;;;;;5094845;28;20097;-78
2022/12/26 07:33:22;;;;;;;15.70;11.00;;;11.80;91.30;;;;;;5076532;28;20483;-78
2022/12/26 07:35:48;;;;;;;16.50;11.15;;;11.80;91.30;;;;;;5094906;28;20038;-78
2022/12/26 07:38:14;;;;;;;16.80;11.45;;;11.90;91.30;;;;;;5076666;28;20028;-79
2022/12/26 07:40:40;;;;;;;15.82;11.98;;;11.90;91.30;;;;;;5094515;28;20318;-78
2022/12/26 07:43:06;;;;;;;15.30;11.40;;;12.00;91.40;;;;;;5077014;28;20043;-79
2022/12/26 07:45:31;;;;;;;15.30;12.27;;;12.00;91.30;;;;;;5097685;28;20383;-78
2022/12/26 07:47:57;;;;;;;19.80;13.10;;;12.10;91.50;;;;;;5097723;28;20339;-78
2022/12/26 07:50:27;;;;;;;18.05;12.23;;;12.10;91.30;;;;;;5096539;28;20059;-79
2022/12/26 07:52:53;;;;;;;18.33;12.52;;;12.10;91.20;;;;;;5094628;28;20044;-77
2022/12/26 07:55:19;;;;;;;16.95;11.98;;;12.10;91.10;;;;;;5094699;28;20382;-78
2022/12/26 07:57:50;;;;;;;16.85;12.00;;;12.20;91.30;;;;;;5094145;28;20096;-78
2022/12/26 08:00:18;;;;;;;18.48;12.68;;;12.20;91.40;;;;;;5076110;28;20032;-79
2022/12/26 08:02:44;;;;;;;19.23;12.00;;;12.30;91.40;;;;;;5076245;28;20032;-77
2022/12/26 08:05:09;;;;;;;21.80;11.93;;;12.40;91.30;;;;;;5094280;28;20032;-77
2022/12/26 08:07:35;;;;;;;19.15;13.38;;;12.50;91.30;;;;;;5093913;28;20127;-77
2022/12/26 08:10:01;;;;;;;20.55;13.02;;;12.50;91.20;;;;;;5076053;28;20032;-78
2022/12/26 08:12:26;;;;;;;20.25;12.95;;;12.50;91.20;;;;;;5094029;28;20036;-79
2022/12/26 08:14:52;;;;;;;19.02;12.82;;;12.50;91.20;;;;;;5094203;28;20105;-77
2022/12/26 08:17:18;;;;;;;20.52;13.27;;;12.50;91.10;;;;;;5075771;28;20047;-78
2022/12/26 08:19:44;;;;;;;20.52;12.93;;;12.50;91.20;;;;;;5075587;28;20035;-78
2022/12/26 08:22:09;;;;;;;18.92;13.48;;;12.60;91.40;;;;;;5075917;28;20028;-76
2022/12/26 08:24:35;;;;;;;22.65;13.20;;;12.60;91.30;;;;;;5075650;28;20468;-77
2022/12/26 08:27:02;;;;;;;16.38;12.98;;;12.60;91.30;;;;;;5075444;28;20146;-78
2022/12/26 08:29:28;;;;;;;21.55;14.00;;;12.60;91.50;;;;;;5093666;28;20036;-78
2022/12/26 08:31:55;;;;;;;18.02;13.07;;;12.60;91.60;;;;;;5094030;28;20122;-78
2022/12/26 08:34:21;;;;;;;18.50;13.73;;;12.70;91.50;;;;;;5075292;28;20089;-78
2022/12/26 08:36:50;;;;;;;19.02;12.85;;;12.80;91.50;;;;;;5092866;28;20029;-77
2022/12/26 08:39:16;;;;;;;15.63;12.52;;;12.90;91.50;;;;;;5093642;28;20040;-79
2022/12/26 08:41:42;;;;;;;18.77;12.93;;;13.00;91.50;;;;;;5075287;28;20036;-79
2022/12/26 08:44:08;;;;;;;16.08;13.02;;;13.10;91.40;;;;;;5074856;28;20033;-78
2022/12/26 08:46:34;;;;;;;22.20;13.57;;;13.10;91.50;;;;;;5075009;28;20424;-78
2022/12/26 08:48:59;;;;;;;23.23;13.82;;;13.20;91.60;;;;;;5093494;28;20036;-78
2022/12/26 08:51:25;;;;;;;17.60;13.93;;;13.30;91.50;;;;;;5093001;28;20043;-77
2022/12/26 08:53:53;;;;;;;20.70;13.98;;;13.30;91.50;;;;;;5093379;28;20035;-78
2022/12/26 08:56:22;;;;;;;19.85;14.00;;;13.30;91.60;;;;;;5093107;28;20522;-78
2022/12/26 08:58:48;;;;;;;20.85;13.73;;;13.40;91.50;;;;;;5074543;28;20036;-77
2022/12/26 09:01:17;;;;;;;17.90;12.88;;;13.40;91.50;;;;;;5074909;28;20028;-79
2022/12/26 09:03:44;;;;;;;21.08;13.45;;;13.50;91.60;;;;;;5092943;28;20029;-78
2022/12/26 09:06:12;;;;;;;22.63;14.13;;;13.50;91.70;;;;;;5074627;28;20028;-79
2022/12/26 09:08:38;;;;;;;20.20;15.45;;;13.60;91.70;;;;;;5092830;28;20120;-78
2022/12/26 09:11:16;;;;;;;24.92;14.70;;;13.70;91.70;;;;;;5074695;28;20032;-79
2022/12/26 09:13:42;;;;;;;24.45;15.63;;;13.80;91.50;;;;;;5074667;28;20119;-77
2022/12/26 09:16:16;;;;;;;23.23;14.63;;;13.90;91.60;;;;;;5093299;28;20575;-79
2022/12/26 09:18:43;;;;;;;22.48;15.40;;;13.90;91.40;;;;;;5092584;28;20047;-77
2022/12/26 09:21:10;;;;;;;22.00;14.65;;;14.00;91.50;;;;;;5074270;28;20032;-78
2022/12/26 09:23:37;;;;;;;23.00;15.13;;;14.10;91.40;;;;;;5092824;28;20040;-78
2022/12/26 09:26:10;;;;;;;25.08;15.73;;;14.20;91.40;;;;;;5074251;28;20051;-78
2022/12/26 09:28:36;;;;;;;20.50;15.00;;;14.30;91.50;;;;;;5074389;28;20126;-78
2022/12/26 09:31:05;;;;;;;20.80;15.55;;;14.40;91.40;;;;;;5092456;28;20032;-77
2022/12/26 09:33:36;;;;;;;25.13;15.38;;;14.50;91.30;;;;;;5092336;28;20056;-78
2022/12/26 09:36:05;;;;;;;22.63;14.80;;;14.60;91.20;;;;;;5074861;28;20511;-78
2022/12/26 09:38:30;;;;;;;19.02;14.85;;;14.80;91.30;;;;;;5092633;28;20032;-77
2022/12/26 09:40:59;;;;;;;23.20;15.32;;;14.80;91.10;;;;;;5074725;28;20096;-78
2022/12/26 09:43:28;;;;;;;20.63;15.30;;;14.90;91.00;;;;;;5092569;28;20048;-79
2022/12/26 09:46:09;;;;;;;23.35;15.60;;;14.90;91.10;;;;;;5092627;28;20036;-79
2022/12/26 09:48:47;;;;;;;23.33;15.70;;;14.90;91.30;;;;;;5074289;28;20369;-78
2022/12/26 09:51:13;;;;;;;21.45;15.43;;;14.90;91.30;;;;;;5092370;28;20040;-78
2022/12/26 09:53:42;;;;;;;20.52;15.25;;;15.00;91.30;;;;;;5092428;28;20089;-79
2022/12/26 09:56:13;;;;;;;23.70;14.88;;;15.00;91.30;;;;;;5092117;28;20119;-79
2022/12/26 09:58:44;;;;;;;20.83;15.02;;;15.10;91.30;;;;;;5092391;28;20032;-79
2022/12/26 10:01:32;;;;;;;22.00;15.57;;;15.30;91.10;;;;;;5074391;28;20119;-79
2022/12/26 10:03:59;;;;;;;25.40;15.60;;;15.30;91.00;;;;;;5092205;28;20399;-78
2022/12/26 10:06:36;;;;;;;19.30;13.80;;;15.40;91.20;;;;;;5074003;28;20032;-78
2022/12/26 10:09:13;;;;;;;17.23;12.85;;;15.50;91.20;;;;;;5092303;28;20040;-79
2022/12/26 10:12:04;;;;;;;17.52;12.80;;;15.70;90.90;;;;;;5092638;28;20035;-80
2022/12/26 10:15:20;;;;;;;17.80;12.40;;;15.70;90.80;;;;;;5093283;28;20036;-79
2022/12/26 10:18:04;;;;;;;19.08;13.05;;;15.80;90.70;;;;;;5030039;28;20049;-80
2022/12/26 10:20:42;;;;;;;16.02;11.98;;;15.90;90.60;;;;;;5069155;28;20028;-77
2022/12/26 10:23:31;;;;;;;16.85;12.40;;;16.00;90.50;;;;;;5092193;28;20024;-79
2022/12/26 10:25:59;;;;;;;19.58;12.63;;;16.10;90.90;;;;;;5074283;28;20454;-79
2022/12/26 10:28:58;;;;;;;17.77;13.20;;;16.20;90.40;;;;;;5074042;28;20464;-79
2022/12/26 10:31:33;;;;;;;17.85;13.40;;;16.30;90.40;;;;;;5068355;28;20044;-78
2022/12/26 10:34:17;;;;;;;21.52;15.10;;;16.50;90.20;;;;;;5092032;28;20440;-78
2022/12/26 10:37:04;;;;;;;21.23;13.82;;;16.60;90.20;;;;;;5073615;28;20124;-78
2022/12/26 10:39:44;;;;;;;20.00;14.18;;;16.60;90.20;;;;;;5091455;28;20048;-77
2022/12/26 10:42:33;;;;;;;19.48;13.20;;;16.60;90.20;;;;;;5091513;28;20364;-79
2022/12/26 10:44:59;;;;;;;19.75;13.52;;;16.60;90.00;;;;;;5092066;28;20032;-79
2022/12/26 10:47:38;;;;;;;21.77;13.05;;;16.70;89.90;;;;;;5091905;28;20036;-78
2022/12/26 10:50:05;;;;;;;19.75;12.90;;;16.80;89.90;;;;;;5091656;28;20418;-78
2022/12/26 10:52:37;;;;;;;20.45;13.85;;;16.90;89.00;;;;;;5097789;28;20105;-78
2022/12/26 10:55:04;;;;;;;21.60;14.05;;;16.90;88.80;;;;;;5089075;28;20050;-78
2022/12/26 10:57:35;;;;;;;19.45;13.60;;;16.80;88.40;;;;;;5079840;28;20032;-77
2022/12/26 11:00:27;;;;;;;17.25;12.98;;;16.80;88.70;;;;;;5076999;28;20491;-78
2022/12/26 11:03:04;;;;;;;20.95;13.32;;;16.80;88.70;;;;;;5094539;28;20040;-80
2022/12/26 11:05:31;;;;;;;18.50;13.55;;;16.80;88.90;;;;;;5077532;28;20040;-77
2022/12/26 11:08:15;;;;;;;19.13;13.48;;;16.80;89.10;;;;;;5095260;28;20540;-77
2022/12/26 11:10:46;;;;;;;19.67;12.98;;;16.80;88.90;;;;;;5076901;28;20044;-78
2022/12/26 11:13:22;;;;;;;18.10;12.85;;;16.80;88.90;;;;;;5076763;28;20531;-79
2022/12/26 11:15:53;;;;;;;17.63;11.60;;;16.90;89.00;;;;;;5094953;28;20028;-77
2022/12/26 11:18:26;;;;;;;17.17;11.43;;;17.10;88.60;;;;;;5076772;28;20123;-79
2022/12/26 11:20:52;;;;;;;17.88;12.38;;;17.10;87.20;;;;;;5076847;28;20537;-77
2022/12/26 11:23:26;;;;;;;16.73;11.57;;;17.10;87.30;;;;;;5076495;28;20032;-79
2022/12/26 11:25:54;;;;;;;18.95;12.00;;;17.10;88.10;;;;;;5094541;28;20044;-79
2022/12/26 11:28:32;;;;;;;17.30;12.93;;;17.00;87.30;;;;;;5094589;28;20040;-79
2022/12/26 11:31:01;;;;;;;16.80;12.05;;;16.90;88.40;;;;;;5094583;28;20098;-79
2022/12/26 11:33:35;;;;;;;21.08;13.45;;;16.90;88.00;;;;;;5076570;28;20082;-78
2022/12/26 11:36:06;;;;;;;;;;;17.00;88.10;;;;;;5094604;28;20032;-78
2022/12/26 11:38:46;;;;;;;17.25;11.95;;;17.00;88.60;;;;;;5075988;28;19904;-79
2022/12/26 11:41:31;;;;;;;15.23;11.48;;;17.00;88.00;;;;;;5094301;28;20036;-77
2022/12/26 11:44:17;;;;;;;18.08;11.02;;;17.00;87.90;;;;;;5094162;28;20028;-77
2022/12/26 11:47:00;;;;;;;16.60;11.68;;;17.00;88.50;;;;;;5076145;28;20036;-78
2022/12/26 11:49:31;;;;;;;17.90;11.63;;;17.10;88.60;;;;;;5094206;28;20508;-78
2022/12/26 11:51:59;;;;;;;17.45;11.05;;;17.20;88.00;;;;;;5094227;28;20036;-77
2022/12/26 11:54:34;;;;;;;16.73;11.68;;;17.30;87.80;;;;;;5094361;28;20039;-78
2022/12/26 11:57:30;;;;;;;15.55;9.68;;;17.40;87.60;;;;;;5094456;28;20082;-78
2022/12/26 12:00:16;;;;;;;16.25;8.32;;;17.40;87.40;;;;;;5076395;28;20064;-78
2022/12/26 12:02:42;;;;;;;15.98;8.07;;;17.40;87.50;;;;;;5076255;28;20531;-78
2022/12/26 12:05:25;;;;;;;14.35;6.50;;;17.50;87.30;;;;;;5093858;28;20032;-77
2022/12/26 12:08:08;;;;;;;9.57;5.85;;;17.50;87.20;;;;;;5093738;28;20052;-78
2022/12/26 12:10:49;;;;;;;10.27;5.60;;;17.60;88.00;;;;;;5092656;28;20111;-78
2022/12/26 12:13:39;;;;;;;8.77;4.60;;;17.60;88.00;;;;;;5093929;28;20036;-79
2022/12/26 12:16:26;;;;;;;12.27;5.20;;;17.70;87.70;;;;;;5093863;28;20032;-80
2022/12/26 12:18:54;;;;;;;11.30;5.85;;;17.70;87.50;;;;;;5093952;28;20036;-79
2022/12/26 12:21:27;;;;;;;16.77;8.32;;;17.70;86.80;;;;;;5093723;28;20059;-79
2022/12/26 12:24:13;;;;;;;9.38;5.97;;;17.70;86.70;;;;;;5075403;28;20028;-78
2022/12/26 12:26:47;;;;;;;14.20;5.65;;;17.70;87.40;;;;;;5093647;28;20040;-79
2022/12/26 12:29:21;;;;;;;11.48;6.57;;;17.70;86.90;;;;;;5093517;28;20048;-78
2022/12/26 12:32:03;;;;;;;10.00;5.40;;;17.80;87.30;;;;;;5075482;28;20063;-80
2022/12/26 12:35:01;;;;;;;11.70;5.00;;;17.90;87.10;;;;;;5075321;28;20036;-77
2022/12/26 12:37:38;;;;;;;14.18;5.63;;;18.00;86.90;;;;;;5094000;28;20028;-78
2022/12/26 12:40:19;;;;;;;9.13;4.68;;;18.00;86.60;;;;;;5075195;28;20040;-78
2022/12/26 12:42:44;;;;;;;10.48;4.75;;;18.00;86.40;;;;;;5093235;28;20028;-79
2022/12/26 12:45:21;;;;;;;8.57;4.65;;;18.00;86.10;;;;;;5074881;28;20028;-79
2022/12/26 12:47:58;;;;;;;9.30;4.75;;;18.00;86.30;;;;;;5093240;28;20480;-77
2022/12/26 12:50:47;;;;;;;8.98;4.40;;;17.90;85.90;;;;;;5093432;28;20437;-79
2022/12/26 12:54:10;;;;;;;9.60;5.10;;;18.00;86.80;;;;;;5074747;28;20101;-78
2022/12/26 12:57:22;;;;;;;10.82;4.30;;;18.10;86.10;;;;;;5010680;28;20045;-79
2022/12/26 13:00:03;;;;;;;10.30;4.70;;;18.20;85.30;;;;;;4997204;28;20042;-79
2022/12/26 13:02:41;;;;;;;8.35;4.07;;;18.10;84.90;;;;;;5067865;28;20093;-78
2022/12/26 13:05:19;;;;;;;10.80;4.78;;;18.10;85.30;;;;;;5092890;28;20047;-78
2022/12/26 13:07:51;;;;;;;9.73;5.32;;;18.00;85.30;;;;;;5092360;28;20032;-78
2022/12/26 13:10:22;;;;;;;8.00;5.47;;;17.90;85.20;;;;;;5092621;28;20044;-78
2022/12/26 13:12:50;;;;;;;29.25;16.67;;;17.80;85.40;;;;;;5074508;28;20032;-77
2022/12/26 13:15:37;;;;;;;13.93;8.40;;;17.80;85.40;;;;;;5075108;28;20429;-77
2022/12/26 13:18:16;;;;;;;11.15;5.82;;;17.80;85.40;;;;;;5094726;28;20417;-78
2022/12/26 13:21:05;;;;;;;13.52;5.32;;;17.80;85.70;;;;;;5093550;28;20031;-78
2022/12/26 13:26:48;;;;;;;9.60;5.20;;;17.70;86.20;;;;;;5092831;28;20062;-79
2022/12/26 13:29:32;;;;;;;10.60;5.88;;;17.70;85.70;;;;;;5074339;28;20043;-79
2022/12/26 13:31:59;;;;;;;11.82;6.03;;;17.60;85.80;;;;;;5092657;28;20028;-79
2022/12/26 13:34:25;;;;;;;11.15;5.80;;;17.60;85.90;;;;;;5074029;28;20483;-77
2022/12/26 13:36:56;;;;;;;11.18;5.47;;;17.60;86.10;;;;;;5092511;28;20493;-78
2022/12/26 13:39:22;;;;;;;11.25;5.30;;;17.60;86.00;;;;;;5074292;28;20043;-79
2022/12/26 13:44:35;;;;;;;10.13;5.32;;;17.60;86.10;;;;;;5092795;28;20035;-78
2022/12/26 13:47:01;;;;;;;11.27;5.38;;;17.60;86.20;;;;;;5092716;28;20454;-76
2022/12/26 13:49:37;;;;;;;15.18;6.28;;;17.60;86.20;;;;;;5093506;28;20050;-79
2022/12/26 13:52:18;;;;;;;10.68;6.00;;;17.60;86.40;;;;;;5075630;28;20039;-78
2022/12/26 13:54:50;;;;;;;10.70;5.72;;;17.50;86.30;;;;;;5092896;28;20495;-78
2022/12/26 13:57:38;;;;;;;8.93;5.10;;;17.50;86.30;;;;;;5105128;28;20032;-80
2022/12/26 14:00:41;;;;;;;12.27;5.43;;;17.50;86.30;;;;;;5096380;28;20040;-78
2022/12/26 14:03:33;;;;;;;13.25;5.90;;;17.50;85.90;;;;;;5095155;28;20158;-79
2022/12/26 14:06:32;;;;;;;13.13;5.65;;;17.50;86.40;;;;;;5074891;28;20110;-78
2022/12/26 14:09:29;;;;;;;10.07;5.28;;;17.40;86.40;;;;;;5074241;28;20380;-79
2022/12/26 14:12:29;;;;;;;10.32;5.22;;;17.40;85.90;;;;;;5065628;28;20036;-78
2022/12/26 14:15:07;;;;;;;9.77;5.20;;;17.40;86.50;;;;;;5046946;28;20044;-78
2022/12/26 14:18:03;;;;;;;9.43;5.47;;;17.30;86.50;;;;;;5091990;28;20428;-78
2022/12/26 14:20:35;;;;;;;14.55;7.28;;;17.40;86.50;;;;;;5073662;28;20205;-79
2022/12/26 14:23:16;;;;;;;13.80;7.72;;;17.30;86.30;;;;;;5073864;28;20028;-79
2022/12/26 14:26:16;;;;;;;14.82;8.70;;;17.40;86.30;;;;;;5073758;28;20054;-79
2022/12/26 14:28:48;;;;;;;13.50;8.43;;;17.40;86.10;;;;;;5091010;28;20052;-78
2022/12/26 14:31:21;;;;;;;13.38;9.05;;;17.40;86.10;;;;;;5091724;28;20059;-78
2022/12/26 14:34:13;;;;;;;13.63;9.43;;;17.40;85.70;;;;;;5093200;28;20028;-79
2022/12/26 14:37:08;;;;;;;13.38;8.55;;;17.40;86.00;;;;;;5049403;28;20043;-79
2022/12/26 14:40:02;;;;;;;15.52;9.00;;;17.40;85.60;;;;;;5076315;28;20578;-79
2022/12/26 14:45:39;;;;;;;14.00;9.35;;;17.60;85.20;;;;;;5096022;28;19931;-78
2022/12/26 14:48:13;;;;;;;16.33;9.50;;;17.60;85.40;;;;;;5077145;28;20114;-78
2022/12/26 14:50:44;;;;;;;16.40;9.88;;;17.70;85.20;;;;;;5077215;28;20035;-78
2022/12/26 14:53:27;;;;;;;15.80;9.38;;;17.70;85.20;;;;;;5095095;28;20032;-79
2022/12/26 14:55:54;;;;;;;13.45;9.18;;;17.70;85.30;;;;;;5077290;28;20035;-80
2022/12/26 14:58:38;;;;;;;15.73;9.63;;;17.60;85.00;;;;;;5077338;28;20032;-79
2022/12/26 15:01:14;;;;;;;16.25;9.82;;;17.60;85.20;;;;;;5095685;28;20111;-78
2022/12/26 15:04:14;;;;;;;16.52;10.40;;;17.60;85.10;;;;;;5076991;28;20077;-77
2022/12/26 15:07:19;;;;;;;14.35;10.10;;;17.60;85.30;;;;;;5076622;28;20056;-79
2022/12/26 15:10:05;;;;;;;17.52;9.93;;;17.50;85.10;;;;;;5095429;28;20055;-79
2022/12/26 15:13:09;;;;;;;15.63;10.45;;;17.50;85.30;;;;;;5095092;28;20036;-75
2022/12/26 15:16:01;;;;;;;15.70;9.40;;;17.40;85.50;;;;;;5076928;28;20123;-78